createdAt,value
2023-02-02T00:01:28.155Z,101652.72
2023-02-02T00:06:32.502Z,101654.47
2023-02-02T00:11:37.025Z,101649.19
2023-02-02T00:16:45.299Z,101647.41
2023-02-02T00:21:48.785Z,101653.53
2023-02-02T00:26:55.174Z,101658.78
2023-02-02T00:31:58.982Z,101663.16
2023-02-02T00:37:02.142Z,101668.47
2023-02-02T00:42:06.870Z,101671.09
2023-02-02T00:47:10.060Z,101663.13
2023-02-02T00:52:13.215Z,101661.34
2023-02-02T00:57:17.814Z,101658.75
2023-02-02T01:02:20.950Z,101648.31
2023-02-02T01:07:24.267Z,101654.50
2023-02-02T01:12:28.906Z,101659.75
2023-02-02T01:17:32.085Z,101656.31
2023-02-02T01:22:35.526Z,101657.16
2023-02-02T01:27:40.220Z,101657.16
2023-02-02T01:32:43.404Z,101650.97
2023-02-02T01:37:46.607Z,101661.44
2023-02-02T01:42:51.199Z,101658.84
2023-02-02T01:47:57.564Z,101649.25
2023-02-02T01:53:02.610Z,101650.03
2023-02-02T01:58:12.159Z,101645.66
2023-02-02T02:03:18.578Z,101651.69
2023-02-02T02:08:26.023Z,101643.97
2023-02-02T02:13:46.770Z,101652.66
2023-02-02T02:18:56.533Z,101651.81
2023-02-02T02:24:44.615Z,101651.91
2023-02-02T02:30:10.458Z,101655.38
2023-02-02T02:35:24.876Z,101660.66
2023-02-02T02:40:33.433Z,101667.59
2023-02-02T02:45:38.519Z,101661.50
2023-02-02T02:50:43.128Z,101669.41
2023-02-02T02:55:53.163Z,101660.63
2023-02-02T03:01:06.188Z,101662.44
2023-02-02T03:06:16.538Z,101650.25
2023-02-02T03:11:19.850Z,101644.16
2023-02-02T03:16:23.156Z,101634.59
2023-02-02T03:21:27.827Z,101639.84
2023-02-02T03:26:31.277Z,101635.50
2023-02-02T03:31:34.812Z,101619.81
2023-02-02T03:36:39.449Z,101622.44
2023-02-02T03:41:42.739Z,101635.53
2023-02-02T03:46:46.083Z,101643.44
2023-02-02T03:51:50.771Z,101631.25
2023-02-02T03:56:54.075Z,101637.28
2023-02-02T04:01:57.299Z,101643.44
2023-02-02T04:07:02.577Z,101646.09
2023-02-02T04:12:06.084Z,101634.66
2023-02-02T04:17:09.349Z,101644.28
2023-02-02T04:22:14.066Z,101646.00
2023-02-02T04:27:17.333Z,101638.19
2023-02-02T04:32:20.774Z,101648.66
2023-02-02T04:37:25.474Z,101659.19
2023-02-02T04:42:28.715Z,101655.75
2023-02-02T04:47:32.010Z,101657.50
2023-02-02T04:52:36.688Z,101671.50
2023-02-02T04:57:39.927Z,101665.38
2023-02-02T05:02:43.703Z,101675.03
2023-02-02T05:07:48.326Z,101685.59
2023-02-02T05:12:53.856Z,101680.38
2023-02-02T05:17:57.102Z,101690.88
2023-02-02T05:23:01.764Z,101683.03
2023-02-02T05:28:05.059Z,101693.53
2023-02-02T05:33:08.388Z,101686.56
2023-02-02T05:38:13.137Z,101692.69
2023-02-02T05:43:16.327Z,101700.56
2023-02-02T05:48:19.618Z,101694.47
2023-02-02T05:53:24.485Z,101696.28
2023-02-02T05:58:28.264Z,101707.63
2023-02-02T06:03:31.672Z,101713.72
2023-02-02T06:08:37.430Z,101725.13
2023-02-02T06:13:40.751Z,101729.50
2023-02-02T06:18:44.063Z,101719.91
2023-02-02T06:23:49.942Z,101713.81
2023-02-02T06:28:55.052Z,101726.91
2023-02-02T06:33:59.871Z,101739.13
2023-02-02T06:39:06.089Z,101741.75
2023-02-02T06:44:09.353Z,101745.25
2023-02-02T06:49:12.618Z,101761.84
2023-02-02T06:54:17.487Z,101762.72
2023-02-02T06:59:20.940Z,101771.47
2023-02-02T07:04:24.202Z,101781.94
2023-02-02T07:09:28.845Z,101775.84
2023-02-02T07:14:32.016Z,101778.44
2023-02-02T07:19:35.268Z,101764.50
2023-02-02T07:24:39.941Z,101783.72
2023-02-02T07:29:43.144Z,101780.19
2023-02-02T07:34:46.377Z,101784.59
2023-02-02T07:39:51.030Z,101781.97
2023-02-02T07:44:54.256Z,101789.81
2023-02-02T07:49:57.533Z,101794.22
2023-02-02T07:55:14.030Z,101792.47
2023-02-02T08:00:18.704Z,101808.16
2023-02-02T08:05:23.127Z,101809.91
2023-02-02T08:10:28.111Z,101821.28
2023-02-02T08:15:31.309Z,101823.00
2023-02-02T08:20:34.632Z,101826.50
2023-02-02T08:25:39.322Z,101828.22
2023-02-02T08:30:42.722Z,101832.59
2023-02-02T08:35:47.419Z,101843.06
2023-02-02T08:40:52.778Z,101843.06
2023-02-02T08:46:02.113Z,101852.63
2023-02-02T08:51:09.700Z,101855.19
2023-02-02T08:56:16.336Z,101865.63
2023-02-02T09:01:21.605Z,101862.03
2023-02-02T09:06:27.517Z,101875.13
2023-02-02T09:11:32.209Z,101882.03
2023-02-02T09:16:36.498Z,101886.38
2023-02-02T09:21:40.757Z,101889.84
2023-02-02T09:26:46.544Z,101894.19
2023-02-02T09:31:49.961Z,101899.34
2023-02-02T09:36:54.534Z,101887.94
2023-02-02T09:42:40.962Z,101897.56
2023-02-02T09:48:11.281Z,101905.28
2023-02-02T09:53:22.231Z,101910.47
2023-02-02T09:58:32.464Z,101911.31
2023-02-02T10:03:42.056Z,101910.41
2023-02-02T10:08:50.283Z,101920.91
2023-02-02T10:13:58.558Z,101919.97
2023-02-02T10:19:05.909Z,101929.63
2023-02-02T10:24:17.705Z,101944.44
2023-02-02T10:29:48.065Z,101944.47
2023-02-02T10:35:18.771Z,101949.59
2023-02-02T10:40:38.449Z,101939.88
2023-02-02T10:45:45.396Z,101933.63
2023-02-02T10:50:51.300Z,101962.50
2023-02-02T10:56:01.024Z,101950.25
2023-02-02T11:01:08.057Z,101951.03
2023-02-02T11:06:32.317Z,101951.78
2023-02-02T11:11:40.670Z,101951.84
2023-02-02T11:16:46.532Z,101954.31
2023-02-02T11:21:51.697Z,101954.06
2023-02-02T11:26:55.971Z,101930.69
2023-02-02T11:32:18.983Z,101941.91
2023-02-02T11:37:23.747Z,101932.09
2023-02-02T11:42:27.386Z,101925.88
2023-02-02T11:47:34.144Z,101912.41
2023-02-02T11:52:40.480Z,101890.19
2023-02-02T11:58:19.782Z,101898.09
2023-02-02T12:03:32.052Z,101891.09
2023-02-02T12:08:35.193Z,101883.81
2023-02-02T12:14:01.877Z,101881.72
2023-02-02T12:19:46.612Z,101871.03
2023-02-02T12:24:56.855Z,101867.91
2023-02-02T12:30:13.798Z,101867.09
2023-02-02T12:35:47.598Z,101852.34
2023-02-02T12:41:11.192Z,101846.22
2023-02-02T12:46:28.054Z,101841.06
2023-02-02T12:51:54.419Z,101828.94
2023-02-02T12:57:08.273Z,101823.75
2023-02-02T13:02:25.279Z,101809.50
2023-02-02T13:07:36.682Z,101798.41
2023-02-02T13:12:44.839Z,101801.75
2023-02-02T13:17:52.464Z,101790.41
2023-02-02T13:23:00.440Z,101786.56
2023-02-02T13:28:07.468Z,101770.38
2023-02-02T13:33:18.013Z,101771.00
2023-02-02T13:38:24.598Z,101758.16
2023-02-02T13:43:39.976Z,101755.13
2023-02-02T13:48:54.979Z,101748.00
2023-02-02T13:54:23.033Z,101741.84
2023-02-02T13:59:49.286Z,101741.72
2023-02-02T14:04:57.982Z,101726.53
2023-02-02T14:10:04.616Z,101724.28
2023-02-02T14:15:13.470Z,101714.31
2023-02-02T14:20:41.758Z,101707.13
2023-02-02T14:26:06.606Z,101715.25
2023-02-02T14:31:27.679Z,101705.75
2023-02-02T14:36:31.877Z,101707.13
2023-02-02T14:42:23.569Z,101716.44
2023-02-02T14:47:55.312Z,101716.75
2023-02-02T14:53:02.860Z,101707.78
2023-02-02T14:58:08.960Z,101710.97
2023-02-02T15:03:36.088Z,101707.66
2023-02-02T15:08:39.329Z,101696.94
2023-02-02T15:13:46.875Z,101697.69
2023-02-02T15:19:00.928Z,101710.47
2023-02-02T15:24:06.308Z,101702.06
2023-02-02T15:29:20.647Z,101712.47
2023-02-02T15:34:28.571Z,101711.59
2023-02-02T15:39:35.013Z,101709.38
2023-02-02T15:44:40.034Z,101709.06
2023-02-02T15:49:43.559Z,101713.66
2023-02-02T15:54:54.872Z,101715.34
2023-02-02T16:00:00.703Z,101715.78
2023-02-02T16:05:04.044Z,101728.75
2023-02-02T16:10:09.336Z,101730.22
2023-02-02T16:15:22.127Z,101725.34
2023-02-02T16:20:25.481Z,101732.28
2023-02-02T16:25:32.011Z,101727.22
2023-02-02T16:30:39.915Z,101732.06
2023-02-02T16:35:43.173Z,101738.53
2023-02-02T16:40:46.421Z,101753.19
2023-02-02T16:45:53.220Z,101752.97
2023-02-02T16:51:10.106Z,101750.78
2023-02-02T16:56:25.103Z,101759.47
2023-02-02T17:01:39.059Z,101769.41
2023-02-02T17:06:52.225Z,101783.47
2023-02-02T17:12:01.384Z,101784.38
2023-02-02T17:17:07.683Z,101790.31
2023-02-02T17:22:11.864Z,101787.63
2023-02-02T17:27:18.277Z,101801.41
2023-02-02T17:32:23.999Z,101800.84
2023-02-02T17:37:27.258Z,101808.34
2023-02-02T17:42:31.352Z,101817.38
2023-02-02T17:47:37.757Z,101822.00
2023-02-02T17:52:41.468Z,101829.13
2023-02-02T17:57:47.110Z,101831.19
2023-02-02T18:02:56.892Z,101844.63
2023-02-02T18:08:00.456Z,101845.66
2023-02-02T18:13:03.835Z,101851.94
2023-02-02T18:18:08.708Z,101852.22
2023-02-02T18:23:12.549Z,101860.22
2023-02-02T18:28:17.986Z,101866.47
2023-02-02T18:33:23.663Z,101871.06
2023-02-02T18:38:26.925Z,101870.25
2023-02-02T18:43:30.183Z,101880.00
2023-02-02T18:48:34.743Z,101881.94
2023-02-02T18:53:38.059Z,101889.94
2023-02-02T18:58:42.000Z,101893.63
2023-02-02T19:03:50.023Z,101897.25
2023-02-02T19:08:53.759Z,101892.91
2023-02-02T19:13:57.572Z,101890.56
2023-02-02T19:19:09.232Z,101894.31
2023-02-02T19:24:13.921Z,101898.44
2023-02-02T19:29:20.137Z,101899.72
2023-02-02T19:34:24.755Z,101899.31
2023-02-02T19:39:31.963Z,101899.56
2023-02-02T19:44:36.032Z,101901.41
2023-02-02T19:49:40.594Z,101898.78
2023-02-02T19:54:45.202Z,101913.91
2023-02-02T19:59:51.132Z,101913.09
2023-02-02T20:05:03.757Z,101917.63
2023-02-02T20:10:19.040Z,101923.75
2023-02-02T20:15:26.107Z,101921.13
2023-02-02T20:20:35.836Z,101923.81
2023-02-02T20:25:38.984Z,101922.88
2023-02-02T20:30:42.460Z,101919.50
2023-02-02T20:35:47.014Z,101919.38
2023-02-02T20:40:52.205Z,101922.41
2023-02-02T20:45:55.445Z,101920.53
2023-02-02T20:51:00.146Z,101918.69
2023-02-02T20:56:03.678Z,101917.84
2023-02-02T21:01:07.033Z,101910.78
2023-02-02T21:06:11.585Z,101921.66
2023-02-02T21:11:14.899Z,101939.44
2023-02-02T21:16:18.322Z,101943.81
2023-02-02T21:21:23.067Z,101944.47
2023-02-02T21:26:30.827Z,101954.78
2023-02-02T21:31:35.874Z,101954.00
2023-02-02T21:36:43.973Z,101953.31
2023-02-02T21:41:47.261Z,101945.56
2023-02-02T21:46:52.654Z,101949.06
2023-02-02T21:52:00.419Z,101942.84
2023-02-02T21:57:06.409Z,101941.09
2023-02-02T22:02:30.323Z,101948.06
2023-02-02T22:07:34.945Z,101946.44
2023-02-02T22:12:38.223Z,101942.94
2023-02-02T22:17:43.731Z,101949.22
2023-02-02T22:22:51.180Z,101954.50
2023-02-02T22:27:57.725Z,101946.75
2023-02-02T22:33:01.101Z,101948.50
2023-02-02T22:38:06.927Z,101958.88
2023-02-02T22:43:10.317Z,101956.25
2023-02-02T22:48:14.521Z,101964.94
2023-02-02T22:53:19.159Z,101971.91
2023-02-02T22:58:22.373Z,101967.59
2023-02-02T23:03:25.769Z,101978.03
2023-02-02T23:08:30.436Z,101978.97
2023-02-02T23:13:33.666Z,101978.09
2023-02-02T23:18:36.934Z,101992.97
2023-02-02T23:23:41.587Z,101995.63
2023-02-02T23:28:44.783Z,101996.53
2023-02-02T23:33:48.035Z,101997.44
2023-02-02T23:38:52.638Z,102001.84
2023-02-02T23:43:56.005Z,101993.97
2023-02-02T23:49:00.807Z,101993.97
2023-02-02T23:54:05.844Z,101986.16
2023-02-02T23:59:09.336Z,101994.88
